OERK/RUH METAR and TAF weather

Enter ICAO airport designator
Station Type Date Time Source
OERK METAR 2019/06/18 04:00 UTC NOAA

OERK 180400Z 31003KT 6000 NSC 33/01 Q1010 NOSIG


Station Type Date Time Source
OERK Decoded METAR 2019/06/18 04:00 UTC NOAA

King Khaled International Airport, Saudi Arabia (OERK) 24-56N 046-43E 612M
Jun 18, 2019 - 12:00 AM EDT / 2019.06.18 0400 UTC
Wind: from the NW (310 degrees) at 3 MPH (3 KT):0
Visibility: 3 mile(s):0
Temperature: 91 F (33 C)
Dew Point: 33 F (1 C)
Relative Humidity: 13%
Pressure (altimeter): 29.83 in. Hg (1010 hPa)
ob: OERK 180400Z 31003KT 6000 NSC 33/01 Q1010 NOSIG
cycle: 4

Station Type Date Time Source
OERK TAF 2019/06/17 18:06 UTC NOAA

TAF OERK 171700Z 1718/1824 06008KT 7000 NSC

Example: see airport list